Terminal Aerodrome Forecast
Issued by NWS

Home | Current Version | Previous Version | Text Only | Print | Product List | Glossary On
Versions: 1 2 3 4 5 6 7 8 9 10 11 12 13 14 15
000
FTUS44 KCRP 170300 AAA
TAFALI
TAF AMD
KALI 170333Z 1704/1724 13008KT P6SM SCT020 BKN250
      TEMPO 1706/1708 BKN022
     FM170800 13006KT P6SM OVC015
     FM171600 13011KT P6SM BKN025 OVC040
     FM172200 11015G20KT P6SM OVC022=

USA.gov is the U.S. government's official web portal to all federal, state and local government web resources and services.